createdAt,value
2018-06-06T00:01:19.935Z,14.00
2018-06-06T00:06:22.126Z,14.43
2018-06-06T00:11:24.267Z,14.47
2018-06-06T00:16:26.458Z,17.50
2018-06-06T00:21:28.594Z,18.60
2018-06-06T00:26:30.757Z,15.90
2018-06-06T00:31:32.938Z,17.40
2018-06-06T00:36:35.098Z,14.00
2018-06-06T00:41:37.461Z,13.30
2018-06-06T00:46:39.633Z,13.87
2018-06-06T00:51:41.802Z,15.50
2018-06-06T00:56:44.118Z,16.90
2018-06-06T01:01:46.294Z,17.83
2018-06-06T01:06:48.481Z,13.13
2018-06-06T01:11:50.662Z,14.00
2018-06-06T01:16:52.858Z,17.00
2018-06-06T01:21:55.014Z,17.50
2018-06-06T01:26:57.174Z,13.60
2018-06-06T01:31:59.384Z,18.07
2018-06-06T01:37:01.591Z,16.73
2018-06-06T01:42:03.945Z,16.53
2018-06-06T01:47:06.403Z,16.33
2018-06-06T01:52:08.862Z,14.90
2018-06-06T01:57:11.043Z,15.80
2018-06-06T02:02:13.502Z,14.70
2018-06-06T02:07:15.667Z,16.03
2018-06-06T02:12:17.838Z,16.80
2018-06-06T02:17:20.008Z,16.97
2018-06-06T02:22:22.170Z,17.60
2018-06-06T02:27:24.343Z,15.80
2018-06-06T02:32:26.509Z,15.57
2018-06-06T02:37:28.696Z,17.63
2018-06-06T02:42:30.867Z,16.70
2018-06-06T02:47:33.261Z,15.90
2018-06-06T02:52:35.426Z,21.37
2018-06-06T02:57:37.577Z,15.70
2018-06-06T03:02:39.720Z,15.80
2018-06-06T03:07:41.874Z,19.67
2018-06-06T03:12:44.026Z,18.63
2018-06-06T03:17:46.349Z,19.53
2018-06-06T03:22:48.514Z,20.33
2018-06-06T03:27:50.663Z,19.00
2018-06-06T03:32:52.818Z,18.30
2018-06-06T03:37:54.962Z,13.87
2018-06-06T03:42:57.097Z,17.77
2018-06-06T03:47:59.236Z,20.40
2018-06-06T03:53:01.390Z,21.33
2018-06-06T03:58:03.576Z,19.23
2018-06-06T04:03:05.705Z,25.03
2018-06-06T04:08:07.851Z,17.10
2018-06-06T04:13:09.998Z,19.87
2018-06-06T04:18:12.161Z,20.97
2018-06-06T04:23:14.305Z,16.80
2018-06-06T04:28:16.509Z,19.43
2018-06-06T04:33:18.675Z,20.90
2018-06-06T04:38:20.818Z,20.50
2018-06-06T04:43:22.990Z,23.03
2018-06-06T04:48:25.125Z,19.60
2018-06-06T04:53:28.045Z,22.27
2018-06-06T04:58:30.210Z,23.67
2018-06-06T05:03:32.362Z,18.63
2018-06-06T05:08:34.494Z,21.10
2018-06-06T05:13:36.634Z,21.43
2018-06-06T05:18:38.762Z,26.67
2018-06-06T05:23:40.906Z,24.43
2018-06-06T05:28:43.055Z,23.13
2018-06-06T05:33:45.237Z,23.70
2018-06-06T05:38:47.427Z,30.03
2018-06-06T05:43:49.593Z,27.37
2018-06-06T05:48:51.763Z,24.60
2018-06-06T05:53:53.963Z,25.47
2018-06-06T05:58:56.131Z,22.27
2018-06-06T06:03:58.288Z,23.13
2018-06-06T06:09:00.458Z,29.20
2018-06-06T06:14:02.666Z,22.10
2018-06-06T06:19:04.850Z,23.20
2018-06-06T06:24:07.069Z,23.20
2018-06-06T06:29:09.196Z,27.83
2018-06-06T06:34:11.339Z,25.07
2018-06-06T06:39:13.497Z,26.53
2018-06-06T06:44:15.658Z,22.70
2018-06-06T06:49:17.800Z,28.03
2018-06-06T06:54:19.948Z,22.03
2018-06-06T06:59:22.090Z,19.67
2018-06-06T07:04:24.233Z,23.67
2018-06-06T07:09:26.373Z,23.23
2018-06-06T07:14:28.525Z,19.60
2018-06-06T07:19:30.660Z,20.10
2018-06-06T07:24:32.810Z,21.93
2018-06-06T07:29:34.974Z,26.10
2018-06-06T07:34:37.147Z,23.67
2018-06-06T07:39:39.326Z,21.70
2018-06-06T07:44:41.521Z,24.53
2018-06-06T07:49:43.713Z,31.93
2018-06-06T07:54:45.891Z,23.10
2018-06-06T07:59:48.041Z,24.97
2018-06-06T08:04:50.189Z,23.50
2018-06-06T08:09:52.346Z,21.73
2018-06-06T08:14:54.517Z,19.47
2018-06-06T08:19:56.667Z,21.40
2018-06-06T08:24:58.842Z,21.60
2018-06-06T08:30:00.979Z,20.37
2018-06-06T08:35:03.174Z,21.23
2018-06-06T08:40:05.322Z,20.87
2018-06-06T08:45:07.477Z,27.23
2018-06-06T08:50:09.618Z,25.60
2018-06-06T08:55:11.759Z,22.40
2018-06-06T09:00:13.893Z,18.70
2018-06-06T09:05:16.041Z,23.30
2018-06-06T09:10:18.221Z,20.30
2018-06-06T09:15:20.362Z,20.83
2018-06-06T09:20:22.522Z,23.93
2018-06-06T09:25:24.682Z,25.23
2018-06-06T09:30:26.839Z,22.53
2018-06-06T09:35:29.001Z,20.13
2018-06-06T09:40:31.170Z,22.60
2018-06-06T09:45:33.351Z,22.10
2018-06-06T09:50:35.525Z,25.83
2018-06-06T09:55:37.724Z,18.90
2018-06-06T10:00:45.584Z,19.00
2018-06-06T10:05:47.797Z,22.87
2018-06-06T10:10:49.964Z,23.70
2018-06-06T10:15:52.145Z,22.10
2018-06-06T10:20:54.313Z,22.00
2018-06-06T10:25:56.462Z,25.70
2018-06-06T10:30:58.598Z,19.10
2018-06-06T10:36:00.729Z,21.23
2018-06-06T10:41:02.897Z,20.30
2018-06-06T10:46:05.182Z,21.80
2018-06-06T10:51:07.333Z,18.47
2018-06-06T10:56:09.481Z,24.97
2018-06-06T11:01:11.643Z,21.83
2018-06-06T11:06:13.785Z,19.80
2018-06-06T11:11:15.926Z,21.90
2018-06-06T11:16:18.085Z,19.97
2018-06-06T11:21:20.208Z,20.93
2018-06-06T11:26:22.387Z,26.30
2018-06-06T11:31:24.557Z,20.23
2018-06-06T11:36:26.764Z,21.13
2018-06-06T11:41:28.933Z,25.77
2018-06-06T11:46:31.090Z,18.40
2018-06-06T11:51:33.252Z,17.60
2018-06-06T11:56:35.428Z,16.27
2018-06-06T12:01:37.593Z,20.83
2018-06-06T12:06:39.798Z,20.57
2018-06-06T12:11:41.992Z,17.23
2018-06-06T12:16:44.179Z,18.87
2018-06-06T12:21:46.363Z,17.47
2018-06-06T12:26:48.509Z,19.80
2018-06-06T12:31:50.683Z,16.63
2018-06-06T12:36:52.830Z,16.80
2018-06-06T12:41:54.974Z,17.83
2018-06-06T12:46:57.133Z,17.13
2018-06-06T12:51:59.252Z,17.17
2018-06-06T12:57:01.394Z,16.10
2018-06-06T13:02:03.614Z,16.77
2018-06-06T13:07:05.790Z,16.50
2018-06-06T13:12:07.964Z,18.30
2018-06-06T13:17:10.132Z,20.00
2018-06-06T13:22:12.278Z,15.77
2018-06-06T13:27:14.441Z,18.60
2018-06-06T13:32:16.614Z,16.27
2018-06-06T13:37:18.799Z,17.73
2018-06-06T13:42:20.969Z,14.10
2018-06-06T13:47:23.149Z,13.27
2018-06-06T13:52:25.299Z,13.40
2018-06-06T13:57:27.461Z,15.60
2018-06-06T14:02:29.629Z,15.83
2018-06-06T14:07:31.794Z,14.23
2018-06-06T14:12:34.014Z,14.43
2018-06-06T14:17:36.187Z,17.73
2018-06-06T14:22:38.343Z,17.00
2018-06-06T14:27:40.509Z,17.90
2018-06-06T14:32:42.714Z,16.13
2018-06-06T14:37:44.856Z,15.47
2018-06-06T14:42:47.058Z,11.70
2018-06-06T14:47:49.250Z,12.13
2018-06-06T14:52:53.476Z,11.60
2018-06-06T14:57:55.666Z,10.80
2018-06-06T15:02:57.861Z,14.33
2018-06-06T15:08:00.026Z,15.03
2018-06-06T15:13:02.187Z,15.10
2018-06-06T15:18:04.574Z,17.63
2018-06-06T15:23:06.729Z,12.80
2018-06-06T15:28:09.009Z,14.50
2018-06-06T15:33:11.213Z,21.70
2018-06-06T15:38:13.410Z,15.33
2018-06-06T15:43:15.584Z,16.30
2018-06-06T15:48:17.751Z,13.80
2018-06-06T15:53:19.925Z,19.63
2018-06-06T15:58:22.079Z,16.57
2018-06-06T16:03:24.253Z,15.13
2018-06-06T16:08:26.507Z,13.57
2018-06-06T16:13:28.670Z,14.03
2018-06-06T16:18:30.852Z,21.93
2018-06-06T16:23:33.090Z,13.10
2018-06-06T16:28:35.227Z,23.17
2018-06-06T16:33:37.463Z,16.80
2018-06-06T16:38:39.587Z,13.97
2018-06-06T16:43:41.757Z,16.57
2018-06-06T16:48:43.943Z,14.07
2018-06-06T16:53:46.122Z,14.07
2018-06-06T16:58:49.657Z,15.70
2018-06-06T17:03:51.867Z,14.17
2018-06-06T17:08:54.045Z,14.20
2018-06-06T17:13:56.221Z,14.37
2018-06-06T17:18:58.414Z,15.93
2018-06-06T17:24:00.582Z,13.60
2018-06-06T17:29:02.787Z,14.50
2018-06-06T17:34:04.970Z,18.50
2018-06-06T17:39:08.250Z,16.60
2018-06-06T17:44:10.422Z,14.60
2018-06-06T17:49:12.578Z,18.80
2018-06-06T17:54:14.707Z,16.60
2018-06-06T17:59:16.856Z,19.20
2018-06-06T18:04:18.987Z,15.10
2018-06-06T18:09:21.130Z,18.30
2018-06-06T18:14:23.261Z,22.73
2018-06-06T18:19:25.396Z,19.50
2018-06-06T18:24:27.545Z,20.70
2018-06-06T18:29:29.695Z,17.23
2018-06-06T18:34:31.881Z,20.40
2018-06-06T18:39:34.058Z,26.20
2018-06-06T18:44:36.205Z,17.27
2018-06-06T18:49:38.394Z,17.50
2018-06-06T18:54:40.614Z,19.80
2018-06-06T18:59:42.774Z,18.27
2018-06-06T19:04:44.972Z,16.73
2018-06-06T19:09:47.177Z,52.33
2018-06-06T19:14:49.346Z,52.10
2018-06-06T19:19:51.550Z,63.60
2018-06-06T19:24:54.781Z,18.20
2018-06-06T19:29:57.018Z,22.80
2018-06-06T19:34:59.258Z,23.53
2018-06-06T19:40:01.422Z,21.43
2018-06-06T19:45:03.667Z,27.80
2018-06-06T19:50:05.866Z,20.80
2018-06-06T19:55:08.094Z,24.23
2018-06-06T20:00:10.269Z,24.90
2018-06-06T20:05:12.453Z,20.33
2018-06-06T20:10:14.642Z,19.70
2018-06-06T20:15:16.861Z,20.03
2018-06-06T20:20:19.028Z,20.27
2018-06-06T20:25:21.221Z,18.80
2018-06-06T20:30:23.408Z,21.00
2018-06-06T20:35:25.594Z,23.53
2018-06-06T20:40:27.795Z,25.20
2018-06-06T20:45:29.987Z,20.07
2018-06-06T20:50:32.147Z,20.10
2018-06-06T20:55:34.354Z,19.57
2018-06-06T21:00:36.552Z,19.73
2018-06-06T21:05:38.758Z,24.97
2018-06-06T21:10:40.922Z,20.77
2018-06-06T21:15:43.142Z,22.53
2018-06-06T21:20:45.311Z,20.63
2018-06-06T21:25:47.468Z,17.67
2018-06-06T21:30:49.709Z,23.07
2018-06-06T21:35:51.894Z,18.60
2018-06-06T21:40:54.067Z,16.20
2018-06-06T21:45:56.234Z,21.33
2018-06-06T21:50:58.397Z,16.30
2018-06-06T21:56:00.583Z,16.17
2018-06-06T22:01:02.819Z,16.63
2018-06-06T22:06:05.034Z,18.40
2018-06-06T22:11:07.202Z,15.30
2018-06-06T22:16:09.402Z,20.10
2018-06-06T22:21:11.560Z,17.50
2018-06-06T22:26:13.710Z,19.13
2018-06-06T22:31:15.876Z,19.13
2018-06-06T22:36:18.057Z,19.27
2018-06-06T22:41:20.221Z,18.03
2018-06-06T22:46:22.410Z,18.00
2018-06-06T22:51:24.557Z,21.33
2018-06-06T22:56:26.725Z,21.40
2018-06-06T23:01:28.855Z,23.27
2018-06-06T23:06:31.006Z,16.77
2018-06-06T23:11:33.253Z,16.53
2018-06-06T23:16:35.402Z,15.30
2018-06-06T23:21:37.559Z,17.40
2018-06-06T23:26:39.706Z,18.70
2018-06-06T23:31:41.870Z,17.77
2018-06-06T23:36:44.007Z,19.37
2018-06-06T23:41:46.141Z,18.37
2018-06-06T23:46:48.310Z,20.30
2018-06-06T23:51:50.449Z,21.27
2018-06-06T23:56:52.589Z,17.90
